Piedra, Colorado
Current Conditions -  °F | °C
As of 1:35 AM on Friday 21 Nov 2014 (Local Time) from KPSO Reporting Station
Clear Clear  
Wind Chill: 23°   Ceiling: Unl
Heat Index: 23°   Visibility: 10mi
Dew Point: 14°   Wind: 0mph
Humidity: 67%   Direction: NA
Pressure: 30.1"   Gusts: NA
Location:  37.2078°N, 107.304°W
Report Text: KPSO 210835Z AUTO 00000KT 10SM CLR M05/M10 A3010 RMK AO2 T10491101
Loading
Personal Weather Stations






























Interactive Weather Map New forecast layout! Learn more

10-Day Weather Forecast

Advertisements
Track Severe Weather on mobile